Argos, Indiana
Current Conditions -  °F | °C
As of 4:55 AM on Saturday 22 Nov 2014 (Local Time) from KRCR Reporting Station
Unknown Precip Unknown Precip  
Wind Chill: 28°   Ceiling: 1800
Heat Index: 34°   Visibility: 5mi
Dew Point: 32°   Wind: 7mph
Humidity: 93%   Direction: 210°SSW
Pressure: 30.17"   Gusts: NA
Location:  41.23°N, 86.24°W
Report Text: KRCR 220955Z AUTO 21006KT 5SM UP SCT011 OVC018 01/00 A3017 RMK AO2 P0002
Loading
Personal Weather Stations






























Interactive Weather Map New forecast layout! Learn more

10-Day Weather Forecast

Advertisements
Track Severe Weather on mobile